Time;durP1;ratioP1;P1;durP2;ratioP2;P2;SDS_P1;SDS_P2;PMS_P1;PMS_P2;Temp;Humidity;BMP_temperature;BMP_pressure;BME280_temperature;BME280_humidity;BME280_pressure;Samples;Min_cycle;Max_cycle;Signal;HPM_P1;HPM_P2
2023/05/15 00:00:21;;;;;;;1.00;1.00;;;13.50;99.90;;;;;;7400522;19;19930;-74
2023/05/15 00:02:54;;;;;;;0.00;0.00;;;13.60;99.90;;;;;;7401959;19;19946;-75
2023/05/15 00:05:23;;;;;;;1.23;0.90;;;13.70;99.90;;;;;;7403351;19;19926;-75
2023/05/15 00:07:52;;;;;;;0.85;0.85;;;13.50;99.90;;;;;;7402814;19;19927;-76
2023/05/15 00:10:21;;;;;;;0.32;0.20;;;13.40;99.90;;;;;;7402457;19;20344;-75
2023/05/15 00:12:50;;;;;;;0.20;0.20;;;13.40;99.90;;;;;;7403471;19;19925;-75
2023/05/15 00:15:19;;;;;;;0.00;0.00;;;13.50;99.90;;;;;;7402857;19;19933;-75
2023/05/15 00:17:48;;;;;;;0.40;0.40;;;13.40;99.90;;;;;;7403487;19;20273;-75
2023/05/15 00:20:19;;;;;;;0.00;0.00;;;13.30;99.90;;;;;;7399866;19;19933;-75
2023/05/15 00:22:48;;;;;;;0.10;0.10;;;13.40;99.90;;;;;;7402402;19;19924;-74
2023/05/15 00:25:18;;;;;;;0.73;0.73;;;13.40;99.90;;;;;;7404091;19;19929;-76
2023/05/15 00:27:47;;;;;;;0.03;0.03;;;13.40;99.90;;;;;;7403944;19;19926;-75
2023/05/15 00:30:17;;;;;;;0.32;0.20;;;13.20;99.90;;;;;;7401803;19;19933;-75
2023/05/15 00:32:49;;;;;;;1.08;0.98;;;13.40;99.90;;;;;;7401049;19;19914;-75
2023/05/15 00:35:21;;;;;;;1.90;0.63;;;13.30;99.90;;;;;;7402204;19;19915;-74
2023/05/15 00:37:50;;;;;;;1.30;1.00;;;13.00;99.90;;;;;;7403840;19;19922;-74
2023/05/15 00:40:23;;;;;;;0.10;0.10;;;13.00;99.90;;;;;;7400570;19;19929;-74
2023/05/15 00:42:53;;;;;;;0.25;0.25;;;13.10;99.90;;;;;;7401847;19;19921;-74
2023/05/15 00:45:25;;;;;;;0.15;0.15;;;13.00;99.90;;;;;;7403444;19;19926;-74
2023/05/15 00:47:54;;;;;;;0.93;0.93;;;13.20;99.90;;;;;;7401924;19;19985;-74
2023/05/15 00:50:27;;;;;;;0.77;0.30;;;13.20;99.90;;;;;;7400790;19;19925;-74
2023/05/15 00:52:57;;;;;;;0.13;0.13;;;13.20;99.90;;;;;;7401870;19;19918;-74
2023/05/15 00:55:28;;;;;;;1.50;0.82;;;13.10;99.90;;;;;;7402024;19;19928;-74
2023/05/15 00:57:59;;;;;;;0.22;0.22;;;13.20;99.90;;;;;;7401918;19;19922;-75
2023/05/15 01:00:29;;;;;;;0.45;0.45;;;12.90;99.90;;;;;;7399863;19;19925;-73
2023/05/15 01:02:58;;;;;;;1.35;0.47;;;12.70;99.90;;;;;;7401588;19;20295;-74
2023/05/15 01:05:34;;;;;;;0.65;0.65;;;12.60;99.90;;;;;;7401533;19;19919;-74
2023/05/15 01:08:28;;;;;;;1.00;0.55;;;12.50;99.90;;;;;;7400125;19;20344;-74
2023/05/15 01:10:58;;;;;;;0.45;0.45;;;12.60;99.90;;;;;;7401796;19;19932;-74
2023/05/15 01:13:27;;;;;;;2.40;1.05;;;12.40;99.90;;;;;;7401631;19;19921;-74
2023/05/15 01:15:57;;;;;;;0.03;0.03;;;12.30;99.90;;;;;;7402375;19;20304;-74
2023/05/15 01:18:30;;;;;;;0.38;0.30;;;12.50;99.90;;;;;;7399354;19;19939;-74
2023/05/15 01:21:22;;;;;;;1.52;0.73;;;12.40;99.90;;;;;;7400565;19;20340;-74
2023/05/15 01:24:07;;;;;;;0.15;0.15;;;12.40;99.90;;;;;;7401829;19;19922;-73
2023/05/15 01:27:14;;;;;;;2.85;2.33;;;12.30;99.90;;;;;;7401130;19;19933;-73
2023/05/15 01:29:52;;;;;;;0.00;0.00;;;12.30;99.90;;;;;;7399955;19;19922;-73
2023/05/15 01:32:27;;;;;;;6.60;0.45;;;12.30;99.90;;;;;;7398904;19;19922;-73
2023/05/15 01:35:03;;;;;;;1.85;0.90;;;12.10;99.90;;;;;;7400137;19;19933;-73
2023/05/15 01:37:35;;;;;;;0.50;0.50;;;12.10;99.90;;;;;;7400715;19;19930;-74
2023/05/15 01:40:07;;;;;;;0.38;0.38;;;12.00;99.90;;;;;;7399655;19;19972;-74
2023/05/15 01:42:45;;;;;;;0.38;0.38;;;12.00;99.90;;;;;;7400458;19;19926;-74
2023/05/15 01:45:16;;;;;;;0.55;0.55;;;12.00;99.90;;;;;;7398785;19;19918;-73
2023/05/15 01:47:47;;;;;;;1.02;0.90;;;11.90;99.90;;;;;;7398324;19;19934;-73
2023/05/15 01:50:17;;;;;;;;;;;11.90;99.90;;;;;;7398973;19;19929;-73
2023/05/15 01:52:51;;;;;;;4.10;2.40;;;11.70;99.90;;;;;;7401131;19;19926;-73
2023/05/15 01:55:20;;;;;;;1.13;1.02;;;11.70;99.90;;;;;;7401557;19;19948;-73
2023/05/15 01:57:53;;;;;;;1.30;1.10;;;11.80;99.90;;;;;;7399657;19;19922;-73
2023/05/15 02:00:23;;;;;;;0.03;0.03;;;11.70;99.90;;;;;;7398970;19;19925;-73
2023/05/15 02:02:52;;;;;;;0.93;0.93;;;11.90;99.90;;;;;;7398449;19;20019;-73
2023/05/15 02:05:22;;;;;;;0.00;0.00;;;11.70;99.90;;;;;;7400678;19;19923;-74
2023/05/15 02:07:52;;;;;;;1.60;1.17;;;11.80;99.90;;;;;;7399765;19;20273;-74
2023/05/15 02:10:21;;;;;;;1.55;1.45;;;11.70;99.90;;;;;;7397687;19;19918;-73
2023/05/15 02:13:14;;;;;;;0.57;0.57;;;11.70;99.90;;;;;;7398745;19;20007;-73
2023/05/15 02:15:43;;;;;;;0.55;0.55;;;11.60;99.90;;;;;;7399555;19;20362;-74
2023/05/15 02:18:12;;;;;;;0.25;0.25;;;11.70;99.90;;;;;;7399145;19;19925;-73
2023/05/15 02:20:41;;;;;;;0.47;0.47;;;11.60;99.90;;;;;;7397943;19;19922;-73
2023/05/15 02:23:10;;;;;;;0.95;0.93;;;11.30;99.90;;;;;;7399793;19;20285;-73
2023/05/15 02:25:47;;;;;;;0.45;0.45;;;11.40;99.90;;;;;;7399493;19;19921;-73
2023/05/15 02:28:27;;;;;;;1.10;0.52;;;11.40;99.90;;;;;;7399692;19;19927;-74
2023/05/15 02:31:00;;;;;;;0.63;0.63;;;11.40;99.90;;;;;;7398844;19;19918;-73
2023/05/15 02:33:37;;;;;;;0.40;0.40;;;11.40;99.90;;;;;;7400398;19;19918;-73
2023/05/15 02:36:10;;;;;;;0.40;0.40;;;11.60;99.90;;;;;;7399491;19;21673;-73
2023/05/15 02:38:44;;;;;;;0.10;0.10;;;11.50;99.90;;;;;;7397235;19;20248;-73
2023/05/15 02:41:13;;;;;;;1.35;0.55;;;11.30;99.90;;;;;;7395476;19;19927;-74
2023/05/15 02:43:47;;;;;;;0.00;0.00;;;11.10;99.90;;;;;;7398235;19;19921;-73
2023/05/15 02:46:16;;;;;;;0.05;0.05;;;11.10;99.90;;;;;;7406302;19;19930;-73
2023/05/15 02:48:46;;;;;;;0.70;0.70;;;11.00;99.90;;;;;;7405367;19;19925;-73
2023/05/15 02:51:15;;;;;;;0.63;0.63;;;11.20;99.90;;;;;;7404850;19;19926;-73
2023/05/15 02:53:45;;;;;;;1.85;0.55;;;11.20;99.90;;;;;;7406886;19;19922;-73
2023/05/15 02:56:13;;;;;;;0.10;0.10;;;11.30;99.90;;;;;;7405888;19;20387;-74
2023/05/15 02:58:45;;;;;;;0.75;0.75;;;11.20;99.90;;;;;;7406546;19;20251;-73
2023/05/15 03:01:14;;;;;;;0.08;0.08;;;11.20;99.90;;;;;;7404221;19;19922;-74
2023/05/15 03:03:43;;;;;;;1.55;0.70;;;11.20;99.90;;;;;;7405105;19;19929;-74
2023/05/15 03:06:12;;;;;;;2.22;2.13;;;11.30;99.90;;;;;;7405590;19;19935;-74
2023/05/15 03:08:40;;;;;;;1.33;1.08;;;11.30;99.90;;;;;;7405175;19;19923;-73
2023/05/15 03:11:09;;;;;;;1.00;1.00;;;11.40;99.90;;;;;;7405170;19;20236;-73
2023/05/15 03:13:38;;;;;;;1.00;0.90;;;11.40;99.90;;;;;;7403349;19;19925;-73
2023/05/15 03:16:10;;;;;;;2.13;1.60;;;11.40;99.90;;;;;;7404228;19;19926;-73
2023/05/15 03:18:40;;;;;;;1.92;1.20;;;11.50;99.90;;;;;;7404968;19;19922;-73
2023/05/15 03:21:09;;;;;;;0.57;0.57;;;11.40;99.90;;;;;;7403339;19;19921;-75
2023/05/15 03:23:38;;;;;;;3.47;1.27;;;11.50;99.90;;;;;;7405731;19;19918;-74
2023/05/15 03:26:07;;;;;;;1.70;1.20;;;11.60;99.90;;;;;;7406400;19;19929;-75
2023/05/15 03:28:36;;;;;;;0.13;0.13;;;11.70;99.90;;;;;;7404734;19;20469;-75
2023/05/15 03:31:06;;;;;;;1.77;1.50;;;11.70;99.90;;;;;;7405419;19;20340;-74
2023/05/15 03:33:40;;;;;;;0.98;0.60;;;11.50;99.90;;;;;;7404397;19;19914;-74
2023/05/15 03:36:09;;;;;;;0.47;0.47;;;11.70;99.90;;;;;;7405923;19;19986;-74
2023/05/15 03:38:38;;;;;;;1.90;1.60;;;11.50;99.90;;;;;;7404278;19;19937;-74
2023/05/15 03:41:07;;;;;;;1.45;1.35;;;11.50;99.90;;;;;;7403569;19;19926;-74
2023/05/15 03:43:36;;;;;;;2.30;2.13;;;11.70;99.90;;;;;;7402163;19;19923;-74
2023/05/15 03:46:05;;;;;;;1.00;0.98;;;11.60;99.90;;;;;;7403177;19;20264;-73
2023/05/15 03:48:34;;;;;;;0.52;0.52;;;11.30;99.90;;;;;;7404170;19;19926;-74
2023/05/15 03:51:05;;;;;;;0.10;0.10;;;11.50;99.90;;;;;;7402666;19;19918;-74
2023/05/15 03:53:34;;;;;;;;;;;11.10;99.90;;;;;;7407837;19;20591;-74
2023/05/15 03:56:03;;;;;;;0.10;0.10;;;11.10;99.90;;;;;;7402848;19;19966;-74
2023/05/15 03:58:33;;;;;;;0.22;0.22;;;11.10;99.90;;;;;;7403309;19;19943;-74
2023/05/15 04:01:02;;;;;;;0.25;0.25;;;11.10;99.90;;;;;;7403020;19;20792;-74
2023/05/15 04:03:31;;;;;;;2.38;1.77;;;10.90;99.90;;;;;;7405039;19;19922;-73
2023/05/15 04:06:00;;;;;;;0.47;0.47;;;11.00;99.90;;;;;;7404292;19;19918;-74
2023/05/15 04:08:31;;;;;;;2.15;1.00;;;10.90;99.90;;;;;;7405080;19;19947;-74
2023/05/15 04:11:00;;;;;;;1.13;1.05;;;11.00;99.90;;;;;;7402450;19;19927;-74
2023/05/15 04:13:29;;;;;;;0.85;0.80;;;11.00;99.90;;;;;;7403927;19;19920;-74
2023/05/15 04:15:58;;;;;;;0.35;0.35;;;10.90;99.90;;;;;;7402437;19;20257;-76
2023/05/15 04:18:27;;;;;;;0.20;0.20;;;10.80;99.90;;;;;;7403480;19;19915;-74
2023/05/15 04:20:56;;;;;;;0.05;0.05;;;10.90;99.90;;;;;;7402629;19;19954;-75
2023/05/15 04:23:25;;;;;;;0.00;0.00;;;10.90;99.90;;;;;;7402215;19;19918;-74
2023/05/15 04:25:57;;;;;;;0.22;0.22;;;10.90;99.90;;;;;;7403625;19;19927;-75
2023/05/15 04:28:26;;;;;;;1.48;1.33;;;10.70;99.90;;;;;;7402355;19;20348;-75
2023/05/15 04:30:55;;;;;;;0.47;0.47;;;10.60;99.90;;;;;;7404931;19;19926;-74
2023/05/15 04:33:23;;;;;;;0.00;0.00;;;10.80;99.90;;;;;;7402698;19;19922;-74
2023/05/15 04:35:53;;;;;;;1.20;1.10;;;10.60;99.90;;;;;;7403235;19;19918;-75
2023/05/15 04:38:22;;;;;;;5.45;1.00;;;10.70;99.90;;;;;;7402417;19;20477;-74
2023/05/15 04:40:51;;;;;;;0.70;0.70;;;10.70;99.90;;;;;;7402726;19;19970;-74
2023/05/15 04:43:23;;;;;;;2.08;1.55;;;10.90;99.90;;;;;;7403305;19;19926;-75
2023/05/15 04:45:52;;;;;;;0.50;0.45;;;10.90;99.90;;;;;;7402200;19;19954;-74
2023/05/15 04:48:21;;;;;;;0.32;0.32;;;10.90;99.90;;;;;;7402454;19;19919;-74
2023/05/15 04:50:50;;;;;;;1.48;1.40;;;10.90;99.90;;;;;;7400635;19;19925;-75
2023/05/15 04:53:19;;;;;;;0.50;0.50;;;10.70;99.90;;;;;;7401392;19;19923;-74
2023/05/15 04:55:50;;;;;;;0.85;0.38;;;10.50;99.90;;;;;;7401670;19;19974;-75
2023/05/15 04:58:19;;;;;;;0.43;0.43;;;10.50;99.90;;;;;;7402629;19;19926;-74
2023/05/15 05:00:51;;;;;;;1.55;1.17;;;10.50;99.90;;;;;;7400196;19;20268;-74
2023/05/15 05:03:20;;;;;;;0.75;0.75;;;10.60;99.90;;;;;;7402532;19;19918;-74
2023/05/15 05:05:49;;;;;;;0.10;0.10;;;10.50;99.90;;;;;;7402231;19;20372;-74
2023/05/15 05:08:18;;;;;;;0.25;0.25;;;10.30;99.90;;;;;;7401638;19;19919;-73
2023/05/15 05:10:46;;;;;;;0.10;0.10;;;10.00;99.90;;;;;;7401548;19;20352;-73
2023/05/15 05:13:15;;;;;;;0.32;0.28;;;10.40;99.90;;;;;;7402444;19;19926;-73
2023/05/15 05:15:45;;;;;;;1.15;1.00;;;10.40;99.90;;;;;;7402075;19;20910;-73
2023/05/15 05:18:16;;;;;;;0.85;0.85;;;10.40;99.90;;;;;;7403987;19;19922;-74
2023/05/15 05:20:45;;;;;;;0.55;0.55;;;10.50;99.90;;;;;;7401991;19;20458;-73
2023/05/15 05:23:15;;;;;;;0.00;0.00;;;10.50;99.90;;;;;;7401422;19;19939;-73
2023/05/15 05:25:44;;;;;;;0.63;0.63;;;10.60;99.90;;;;;;7401277;19;20336;-73
2023/05/15 05:28:13;;;;;;;0.00;0.00;;;10.60;99.90;;;;;;7401340;19;20393;-73
2023/05/15 05:30:45;;;;;;;0.00;0.00;;;10.60;99.90;;;;;;7401621;19;19923;-74
2023/05/15 05:33:17;;;;;;;0.03;0.03;;;10.50;99.90;;;;;;7399629;19;20257;-74
2023/05/15 05:35:46;;;;;;;1.13;0.63;;;10.50;99.90;;;;;;7401371;19;19928;-74
2023/05/15 05:38:16;;;;;;;0.15;0.15;;;10.40;99.90;;;;;;7401680;19;19923;-74
2023/05/15 05:40:45;;;;;;;0.93;0.77;;;10.70;99.90;;;;;;7401605;19;19987;-74
2023/05/15 05:43:14;;;;;;;1.63;1.52;;;10.70;99.90;;;;;;7399549;19;19922;-74
2023/05/15 05:45:43;;;;;;;1.02;1.00;;;10.50;99.90;;;;;;7401680;19;19927;-74
2023/05/15 05:48:12;;;;;;;0.35;0.35;;;10.60;99.90;;;;;;7399000;19;19936;-74
2023/05/15 05:50:43;;;;;;;0.30;0.30;;;10.40;99.90;;;;;;7401184;19;19931;-74
2023/05/15 05:53:12;;;;;;;0.15;0.15;;;10.40;99.90;;;;;;7400703;19;20264;-73
2023/05/15 05:55:41;;;;;;;0.80;0.80;;;10.40;99.90;;;;;;7401625;19;19986;-73
2023/05/15 05:58:10;;;;;;;0.00;0.00;;;10.40;99.90;;;;;;7400398;19;19922;-74
2023/05/15 06:00:39;;;;;;;0.52;0.52;;;10.40;99.90;;;;;;7400469;19;19926;-73
2023/05/15 06:03:08;;;;;;;0.00;0.00;;;10.50;99.90;;;;;;7398141;19;20267;-74
2023/05/15 06:05:37;;;;;;;0.35;0.35;;;10.40;99.90;;;;;;7397940;19;19983;-74
2023/05/15 06:08:09;;;;;;;0.88;0.65;;;10.50;99.90;;;;;;7400235;19;20257;-74
2023/05/15 06:10:38;;;;;;;4.28;0.70;;;10.50;99.90;;;;;;7398317;19;20258;-75
2023/05/15 06:13:07;;;;;;;0.47;0.47;;;10.30;99.90;;;;;;7397625;19;19929;-78
2023/05/15 06:15:36;;;;;;;1.35;0.88;;;10.20;99.90;;;;;;7393168;19;19923;-82
2023/05/15 06:18:05;;;;;;;0.60;0.60;;;10.60;99.90;;;;;;7401288;19;19986;-81
2023/05/15 06:20:35;;;;;;;0.10;0.10;;;10.60;99.90;;;;;;7407487;19;19914;-82
2023/05/15 06:23:03;;;;;;;0.65;0.57;;;10.70;99.90;;;;;;7404711;19;19938;-79
2023/05/15 06:25:35;;;;;;;0.03;0.03;;;10.80;99.90;;;;;;7404397;19;19923;-78
2023/05/15 06:28:04;;;;;;;0.10;0.10;;;10.70;99.90;;;;;;7402853;19;19931;-77
2023/05/15 06:30:33;;;;;;;2.38;0.75;;;10.60;99.90;;;;;;7407467;19;19918;-77
2023/05/15 06:33:02;;;;;;;1.95;1.17;;;10.60;99.90;;;;;;7405015;19;19970;-76
2023/05/15 06:35:31;;;;;;;0.88;0.88;;;10.50;99.90;;;;;;7407582;19;19929;-76
2023/05/15 06:38:00;;;;;;;0.25;0.25;;;10.50;99.90;;;;;;7407179;19;19924;-78
2023/05/15 06:40:30;;;;;;;0.60;0.60;;;10.40;99.90;;;;;;7406919;19;19982;-77
2023/05/15 06:43:02;;;;;;;0.38;0.38;;;10.50;99.90;;;;;;7402669;19;19940;-77
2023/05/15 06:45:31;;;;;;;0.00;0.00;;;10.60;99.90;;;;;;7406431;19;19930;-76
2023/05/15 06:48:00;;;;;;;1.02;1.02;;;10.60;99.90;;;;;;7408171;19;19933;-75
2023/05/15 06:50:29;;;;;;;0.40;0.40;;;10.70;99.90;;;;;;7405405;19;19919;-76
2023/05/15 06:52:58;;;;;;;0.82;0.82;;;10.70;99.90;;;;;;7406023;19;19922;-76
2023/05/15 06:55:27;;;;;;;0.55;0.55;;;10.90;99.90;;;;;;7405283;19;20342;-75
2023/05/15 06:57:55;;;;;;;0.85;0.85;;;10.90;99.90;;;;;;7406479;19;20475;-76
2023/05/15 07:00:27;;;;;;;0.00;0.00;;;11.00;99.90;;;;;;7405863;19;19992;-76
2023/05/15 07:02:56;;;;;;;2.17;1.00;;;11.20;99.90;;;;;;7403035;19;19933;-77
2023/05/15 07:05:25;;;;;;;0.22;0.22;;;11.30;99.90;;;;;;7405452;19;19917;-76
2023/05/15 07:07:54;;;;;;;0.70;0.70;;;11.30;99.90;;;;;;7405593;19;19994;-77
2023/05/15 07:10:23;;;;;;;0.82;0.82;;;11.40;99.90;;;;;;7404257;19;19925;-77
2023/05/15 07:12:52;;;;;;;0.40;0.38;;;11.30;99.90;;;;;;7405081;19;19919;-77
2023/05/15 07:15:21;;;;;;;0.03;0.03;;;11.60;99.90;;;;;;7403330;19;19935;-77
2023/05/15 07:17:53;;;;;;;0.70;0.70;;;11.40;99.90;;;;;;7405832;19;19926;-76
2023/05/15 07:20:22;;;;;;;0.75;0.75;;;11.40;99.90;;;;;;7404497;19;20340;-76
2023/05/15 07:22:51;;;;;;;0.65;0.65;;;11.50;99.90;;;;;;7404195;19;19929;-77
2023/05/15 07:25:20;;;;;;;1.13;1.02;;;11.50;99.90;;;;;;7405300;19;19922;-77
2023/05/15 07:27:49;;;;;;;0.20;0.20;;;11.50;99.90;;;;;;7405026;19;19918;-77
2023/05/15 07:30:18;;;;;;;0.00;0.00;;;10.90;99.90;;;;;;7404282;19;19966;-77
2023/05/15 07:32:46;;;;;;;0.10;0.10;;;11.70;99.90;;;;;;7405637;19;19986;-77
2023/05/15 07:35:18;;;;;;;0.10;0.10;;;11.80;99.90;;;;;;7405470;19;19922;-77
2023/05/15 07:37:47;;;;;;;0.52;0.52;;;11.70;99.90;;;;;;7406987;19;19942;-77
2023/05/15 07:40:17;;;;;;;2.22;0.52;;;11.90;99.90;;;;;;7405325;19;19926;-78
2023/05/15 07:42:47;;;;;;;1.25;1.17;;;12.00;99.90;;;;;;7402935;19;19925;-77
2023/05/15 07:45:16;;;;;;;0.00;0.00;;;12.00;99.90;;;;;;7404685;19;20300;-77
2023/05/15 07:47:47;;;;;;;0.55;0.55;;;12.00;99.90;;;;;;7403511;19;20260;-77
2023/05/15 07:50:19;;;;;;;0.00;0.00;;;12.20;99.90;;;;;;7404979;19;19922;-77
2023/05/15 07:52:48;;;;;;;;;;;12.30;99.90;;;;;;7407239;19;19918;-76
2023/05/15 07:55:17;;;;;;;0.28;0.28;;;12.30;99.90;;;;;;7405550;19;19925;-76
2023/05/15 07:57:46;;;;;;;0.00;0.00;;;12.50;99.90;;;;;;7405732;19;19922;-77
2023/05/15 08:00:16;;;;;;;0.30;0.30;;;12.50;99.90;;;;;;7405207;19;20009;-76
2023/05/15 08:02:46;;;;;;;0.20;0.20;;;12.40;99.90;;;;;;7401580;19;20969;-77
2023/05/15 08:05:15;;;;;;;0.32;0.32;;;12.60;99.90;;;;;;7404779;19;19922;-76
2023/05/15 08:07:46;;;;;;;0.00;0.00;;;12.60;99.90;;;;;;7403993;19;19939;-77
2023/05/15 08:10:15;;;;;;;0.00;0.00;;;12.50;99.90;;;;;;7405171;19;19922;-78
2023/05/15 08:12:46;;;;;;;0.10;0.10;;;12.80;99.90;;;;;;7403713;19;20019;-77
2023/05/15 08:15:15;;;;;;;0.10;0.10;;;12.80;99.90;;;;;;7401725;19;19926;-77
2023/05/15 08:17:44;;;;;;;0.13;0.13;;;12.80;99.90;;;;;;7404166;19;19938;-77
2023/05/15 08:20:14;;;;;;;0.00;0.00;;;12.80;99.90;;;;;;7404145;19;19943;-77
2023/05/15 08:22:46;;;;;;;0.10;0.10;;;12.80;99.90;;;;;;7402386;19;19927;-75
2023/05/15 08:25:15;;;;;;;0.08;0.08;;;12.80;99.90;;;;;;7403830;19;19914;-75
2023/05/15 08:27:43;;;;;;;0.00;0.00;;;13.00;99.90;;;;;;7403267;19;19917;-76
2023/05/15 08:30:14;;;;;;;0.00;0.00;;;13.00;99.90;;;;;;7404098;19;19986;-75
2023/05/15 08:32:45;;;;;;;0.00;0.00;;;13.10;99.90;;;;;;7403297;19;20357;-76
2023/05/15 08:35:14;;;;;;;3.08;0.30;;;13.20;99.90;;;;;;7403176;19;19919;-76
2023/05/15 08:37:45;;;;;;;0.28;0.28;;;13.30;99.90;;;;;;7405237;19;19919;-78
2023/05/15 08:40:15;;;;;;;0.80;0.80;;;13.30;99.90;;;;;;7403933;19;19928;-75
2023/05/15 08:42:46;;;;;;;0.00;0.00;;;13.60;99.90;;;;;;7403022;19;20336;-77
2023/05/15 08:45:16;;;;;;;0.20;0.20;;;13.60;99.90;;;;;;7404548;19;19922;-77
2023/05/15 08:47:45;;;;;;;0.38;0.17;;;13.70;99.90;;;;;;7404642;19;19987;-77
2023/05/15 08:50:16;;;;;;;0.38;0.38;;;13.60;99.90;;;;;;7400562;19;19942;-77
2023/05/15 08:52:49;;;;;;;0.00;0.00;;;13.50;99.90;;;;;;7402584;19;19935;-77
2023/05/15 08:55:18;;;;;;;0.63;0.63;;;13.60;99.90;;;;;;7402850;19;19956;-77
2023/05/15 08:57:49;;;;;;;0.00;0.00;;;13.70;99.90;;;;;;7402021;19;19923;-77
2023/05/15 09:00:20;;;;;;;0.38;0.22;;;13.70;99.90;;;;;;7403153;19;19978;-77
2023/05/15 09:02:49;;;;;;;0.30;0.30;;;13.80;99.90;;;;;;7403179;19;19919;-77
2023/05/15 09:05:19;;;;;;;1.38;0.40;;;13.70;99.90;;;;;;7403027;19;19930;-77
2023/05/15 09:07:53;;;;;;;0.00;0.00;;;13.80;99.90;;;;;;7402869;19;19927;-76
2023/05/15 09:10:22;;;;;;;0.00;0.00;;;13.90;99.90;;;;;;7402752;19;19943;-78
2023/05/15 09:12:53;;;;;;;0.00;0.00;;;13.80;99.90;;;;;;7402739;19;20352;-76
2023/05/15 09:15:24;;;;;;;0.00;0.00;;;13.90;99.90;;;;;;7400300;19;19922;-76
2023/05/15 09:17:54;;;;;;;0.35;0.35;;;14.10;99.90;;;;;;7403043;19;19986;-76
2023/05/15 09:20:28;;;;;;;0.00;0.00;;;15.60;99.90;;;;;;7402616;19;20217;-76
2023/05/15 09:23:01;;;;;;;0.30;0.30;;;14.10;99.90;;;;;;7401508;19;20352;-77
2023/05/15 09:25:39;;;;;;;0.08;0.08;;;14.20;99.90;;;;;;7403741;19;20305;-77
2023/05/15 09:28:08;;;;;;;0.10;0.10;;;14.10;99.90;;;;;;7402463;19;20256;-78
2023/05/15 09:30:40;;;;;;;1.02;0.45;;;14.30;99.90;;;;;;7402184;19;19926;-77
2023/05/15 09:33:10;;;;;;;0.32;0.32;;;14.20;99.90;;;;;;7399795;19;19942;-77
2023/05/15 09:35:40;;;;;;;0.00;0.00;;;14.40;99.90;;;;;;7401991;19;19922;-77
2023/05/15 09:38:14;;;;;;;0.00;0.00;;;14.40;99.90;;;;;;7402220;19;19923;-77
2023/05/15 09:40:43;;;;;;;0.10;0.10;;;14.40;99.90;;;;;;7402366;19;20396;-77
2023/05/15 09:43:13;;;;;;;0.13;0.13;;;14.60;99.90;;;;;;7400562;19;19922;-76
2023/05/15 09:45:46;;;;;;;0.77;0.77;;;14.70;99.90;;;;;;7402596;19;20601;-76
2023/05/15 09:48:16;;;;;;;0.00;0.00;;;14.60;99.90;;;;;;7401675;19;19922;-77
2023/05/15 09:50:45;;;;;;;0.00;0.00;;;14.70;99.90;;;;;;7401535;19;19922;-76
2023/05/15 09:53:16;;;;;;;0.00;0.00;;;14.70;99.90;;;;;;7400515;19;19919;-77
2023/05/15 09:55:45;;;;;;;0.00;0.00;;;14.90;99.90;;;;;;7401113;19;19958;-76
2023/05/15 09:58:16;;;;;;;0.70;0.38;;;14.70;99.90;;;;;;7401200;19;19919;-78
2023/05/15 10:00:47;;;;;;;0.20;0.20;;;14.90;99.90;;;;;;7400289;19;20259;-76
2023/05/15 10:03:16;;;;;;;0.73;0.70;;;15.00;99.90;;;;;;7390682;19;19923;-79
2023/05/15 10:05:45;;;;;;;0.10;0.10;;;14.80;99.90;;;;;;7397398;19;20344;-82
2023/05/15 10:08:17;;;;;;;0.00;0.00;;;14.70;99.90;;;;;;7400491;19;20375;-81
2023/05/15 10:10:47;;;;;;;0.05;0.05;;;14.90;99.90;;;;;;7399535;19;19926;-79
2023/05/15 10:13:17;;;;;;;0.25;0.25;;;15.00;99.90;;;;;;7396464;19;19923;-79
2023/05/15 10:15:48;;;;;;;0.00;0.00;;;15.30;99.90;;;;;;7395714;19;19919;-77
2023/05/15 10:18:25;;;;;;;0.10;0.10;;;15.40;99.90;;;;;;7397001;19;20619;-78
2023/05/15 10:20:53;;;;;;;0.25;0.25;;;15.40;99.90;;;;;;7398304;19;20354;-80
2023/05/15 10:23:25;;;;;;;0.10;0.10;;;15.70;99.90;;;;;;7395900;19;19928;-77
2023/05/15 10:26:02;;;;;;;0.88;0.77;;;15.70;99.90;;;;;;7397543;19;19922;-80
2023/05/15 10:28:31;;;;;;;0.15;0.05;;;15.60;99.90;;;;;;7401611;19;19933;-77
2023/05/15 10:31:03;;;;;;;0.20;0.20;;;15.90;99.90;;;;;;7401371;19;19926;-78
2023/05/15 10:33:32;;;;;;;;;;;15.80;99.90;;;;;;7399184;19;19928;-77
2023/05/15 10:36:01;;;;;;;0.10;0.10;;;15.60;99.90;;;;;;7398792;19;19922;-80
2023/05/15 10:38:33;;;;;;;0.00;0.00;;;15.70;99.90;;;;;;7399707;19;19918;-76
2023/05/15 10:41:03;;;;;;;0.10;0.10;;;15.60;99.90;;;;;;7398798;19;20360;-76
2023/05/15 10:43:33;;;;;;;0.08;0.08;;;15.60;99.90;;;;;;7399641;19;20836;-80
2023/05/15 10:46:03;;;;;;;0.28;0.28;;;15.60;99.90;;;;;;7398029;19;19914;-81
2023/05/15 10:48:32;;;;;;;0.20;0.13;;;15.50;99.90;;;;;;7385847;19;20343;-81
2023/05/15 10:51:02;;;;;;;0.08;0.08;;;15.30;99.90;;;;;;7388429;19;20017;-83
2023/05/15 10:53:35;;;;;;;0.65;0.45;;;15.60;99.90;;;;;;7393584;19;19929;-84
2023/05/15 10:56:04;;;;;;;0.25;0.25;;;15.70;99.90;;;;;;7399961;19;20570;-82
2023/05/15 10:58:33;;;;;;;0.20;0.20;;;15.90;99.90;;;;;;7400743;19;19926;-84
2023/05/15 11:01:02;;;;;;;0.00;0.00;;;16.20;99.90;;;;;;7402426;19;20259;-85
2023/05/15 11:03:38;;;;;;;0.40;0.40;;;16.30;99.90;;;;;;7402678;19;20014;-79
2023/05/15 11:06:12;;;;;;;0.57;0.43;;;16.50;99.90;;;;;;7405224;19;19922;-81
2023/05/15 11:08:44;;;;;;;0.20;0.20;;;16.40;99.90;;;;;;7408868;19;19918;-81
2023/05/15 11:11:57;;;;;;;0.08;0.08;;;16.70;99.90;;;;;;7407203;19;19928;-81
2023/05/15 11:14:26;;;;;;;0.10;0.10;;;16.70;99.90;;;;;;7406783;19;19918;-80
2023/05/15 11:16:59;;;;;;;0.20;0.17;;;16.70;99.90;;;;;;7408527;19;19942;-80
2023/05/15 11:19:35;;;;;;;1.85;0.57;;;16.40;99.90;;;;;;7408639;19;19930;-81
2023/05/15 11:22:16;;;;;;;2.00;0.80;;;16.50;99.90;;;;;;7407207;19;19921;-80
2023/05/15 11:25:01;;;;;;;0.13;0.13;;;16.30;99.90;;;;;;7404697;19;19925;-80
2023/05/15 11:27:32;;;;;;;0.15;0.15;;;16.40;99.90;;;;;;7407347;19;19915;-80
2023/05/15 11:30:10;;;;;;;1.65;0.75;;;16.50;99.90;;;;;;7405877;19;20575;-80
2023/05/15 11:32:53;;;;;;;0.20;0.20;;;16.30;99.90;;;;;;7404970;19;19921;-79
2023/05/15 11:35:25;;;;;;;0.00;0.00;;;16.50;99.90;;;;;;7407179;19;20268;-80
2023/05/15 11:37:55;;;;;;;0.30;0.30;;;16.70;99.90;;;;;;7407085;19;19925;-79
2023/05/15 11:40:28;;;;;;;1.10;0.47;;;17.00;99.90;;;;;;7406570;19;19925;-79
2023/05/15 11:43:21;;;;;;;0.00;0.00;;;17.00;99.90;;;;;;7405056;19;19938;-79
2023/05/15 11:45:54;;;;;;;0.00;0.00;;;17.10;99.90;;;;;;7406741;19;19984;-79
2023/05/15 11:48:26;;;;;;;0.00;0.00;;;17.20;99.90;;;;;;7406679;19;19937;-79
2023/05/15 11:50:55;;;;;;;0.35;0.32;;;17.10;99.90;;;;;;7406133;19;19930;-79
2023/05/15 11:53:25;;;;;;;0.90;0.15;;;17.10;99.90;;;;;;7406455;19;19921;-79
2023/05/15 11:55:57;;;;;;;0.85;0.80;;;17.40;99.90;;;;;;7404033;19;19966;-80
2023/05/15 11:58:27;;;;;;;0.95;0.90;;;17.40;99.90;;;;;;7405955;19;19926;-80
2023/05/15 12:00:56;;;;;;;0.90;0.63;;;17.30;99.90;;;;;;7407380;19;19919;-80
2023/05/15 12:03:26;;;;;;;1.95;0.30;;;17.40;99.90;;;;;;7405503;19;19978;-80
2023/05/15 12:05:56;;;;;;;1.02;1.02;;;17.50;99.90;;;;;;7407829;19;20305;-80
2023/05/15 12:08:24;;;;;;;0.32;0.32;;;17.80;99.90;;;;;;7406319;19;19922;-79
2023/05/15 12:10:59;;;;;;;0.00;0.00;;;17.90;99.90;;;;;;7407275;19;19907;-79
2023/05/15 12:13:29;;;;;;;1.10;0.60;;;17.90;99.90;;;;;;7404739;19;19966;-80
2023/05/15 12:15:58;;;;;;;0.38;0.38;;;17.80;99.90;;;;;;7406787;19;19926;-79
2023/05/15 12:18:27;;;;;;;0.00;0.00;;;17.80;99.90;;;;;;7405714;19;19930;-79
2023/05/15 12:20:57;;;;;;;1.15;0.40;;;17.70;99.90;;;;;;7404803;19;19915;-80
2023/05/15 12:23:27;;;;;;;0.22;0.20;;;17.80;99.90;;;;;;7406346;19;20498;-80
2023/05/15 12:26:03;;;;;;;0.28;0.28;;;17.70;99.90;;;;;;7405053;19;20007;-80
2023/05/15 12:28:35;;;;;;;0.70;0.38;;;17.40;99.90;;;;;;7404682;19;20329;-79
2023/05/15 12:31:04;;;;;;;1.45;1.02;;;17.30;99.90;;;;;;7405589;19;19922;-79
2023/05/15 12:33:33;;;;;;;0.20;0.20;;;17.50;99.90;;;;;;7405751;19;20428;-79
2023/05/15 12:36:02;;;;;;;0.20;0.20;;;17.50;99.90;;;;;;7405320;19;19974;-79
2023/05/15 12:38:32;;;;;;;0.10;0.10;;;17.70;99.90;;;;;;7406756;19;19989;-79
2023/05/15 12:41:05;;;;;;;0.10;0.10;;;17.50;99.90;;;;;;7406355;19;20445;-79
2023/05/15 12:43:34;;;;;;;0.08;0.08;;;17.60;99.90;;;;;;7403951;19;19969;-79
2023/05/15 12:46:03;;;;;;;0.13;0.13;;;17.70;99.90;;;;;;7406822;19;19915;-79
2023/05/15 12:48:33;;;;;;;0.88;0.10;;;17.60;99.90;;;;;;7404385;19;20017;-79
2023/05/15 12:51:09;;;;;;;0.10;0.10;;;17.60;99.90;;;;;;7404455;19;19921;-79
2023/05/15 12:53:38;;;;;;;0.13;0.13;;;17.70;99.90;;;;;;7405801;19;20387;-79
2023/05/15 12:56:10;;;;;;;2.70;0.75;;;17.60;99.90;;;;;;7404124;19;19922;-79
2023/05/15 12:58:40;;;;;;;0.00;0.00;;;17.60;99.90;;;;;;7405227;19;20018;-79
2023/05/15 13:01:09;;;;;;;0.28;0.10;;;17.70;99.90;;;;;;7404057;19;19926;-79
2023/05/15 13:03:37;;;;;;;0.28;0.28;;;17.40;99.90;;;;;;7404664;19;19937;-78
2023/05/15 13:06:08;;;;;;;0.05;0.05;;;17.80;99.90;;;;;;7405025;19;19914;-79